createdAt,value
2019-01-25T00:00:09.294Z,87.75
2019-01-25T00:02:37.719Z,88.30
2019-01-25T00:05:07.502Z,74.10
2019-01-25T00:07:35.951Z,67.22
2019-01-25T00:10:07.447Z,83.70
2019-01-25T00:12:35.883Z,86.08
2019-01-25T00:15:07.138Z,90.10
2019-01-25T00:17:35.552Z,67.47
2019-01-25T00:20:07.264Z,86.00
2019-01-25T00:22:36.058Z,77.00
2019-01-25T00:25:06.127Z,83.30
2019-01-25T00:27:35.003Z,85.47
2019-01-25T00:30:04.986Z,80.32
2019-01-25T00:32:33.411Z,84.97
2019-01-25T00:35:01.866Z,65.20
2019-01-25T00:37:30.368Z,73.47
2019-01-25T00:40:05.974Z,76.67
2019-01-25T00:42:29.104Z,78.45
2019-01-25T00:44:57.551Z,76.20
2019-01-25T00:47:25.966Z,70.20
2019-01-25T00:49:54.503Z,87.78
2019-01-25T00:52:22.987Z,70.05
2019-01-25T00:54:51.396Z,66.37
2019-01-25T00:57:19.851Z,63.38
2019-01-25T00:59:48.334Z,82.37
2019-01-25T01:02:16.766Z,83.05
2019-01-25T01:04:45.180Z,80.42
2019-01-25T01:07:13.931Z,72.62
2019-01-25T01:09:42.354Z,69.82
2019-01-25T01:12:10.770Z,77.32
2019-01-25T01:14:39.202Z,74.40
2019-01-25T01:17:07.661Z,69.37
2019-01-25T01:19:36.108Z,71.80
2019-01-25T01:22:04.887Z,58.13
2019-01-25T01:24:33.347Z,72.70
2019-01-25T01:27:01.812Z,75.10
2019-01-25T01:29:30.237Z,79.60
2019-01-25T01:31:58.683Z,70.80
2019-01-25T01:34:27.107Z,78.05
2019-01-25T01:36:55.549Z,80.12
2019-01-25T01:39:24.015Z,70.42
2019-01-25T01:41:52.439Z,79.95
2019-01-25T01:44:20.859Z,75.42
2019-01-25T01:46:49.358Z,69.92
2019-01-25T01:49:17.848Z,70.32
2019-01-25T01:51:46.271Z,78.45
2019-01-25T01:54:14.705Z,71.60
2019-01-25T01:56:43.138Z,67.85
2019-01-25T01:59:11.603Z,71.75
2019-01-25T02:01:40.012Z,81.28
2019-01-25T02:04:08.464Z,81.50
2019-01-25T02:06:37.078Z,58.73
2019-01-25T02:09:06.991Z,64.27
2019-01-25T02:11:35.419Z,80.70
2019-01-25T02:14:04.095Z,78.47
2019-01-25T02:16:32.549Z,56.90
2019-01-25T02:19:00.992Z,53.20
2019-01-25T02:21:29.415Z,56.15
2019-01-25T02:23:57.858Z,64.80
2019-01-25T02:26:26.316Z,31.90
2019-01-25T02:28:54.755Z,58.92
2019-01-25T02:31:23.179Z,65.10
2019-01-25T02:33:51.686Z,63.02
2019-01-25T02:36:20.127Z,64.70
2019-01-25T02:38:48.552Z,66.60
2019-01-25T02:41:17.003Z,60.25
2019-01-25T02:43:45.418Z,69.42
2019-01-25T02:46:13.868Z,65.20
2019-01-25T02:48:42.342Z,54.75
2019-01-25T02:51:10.770Z,71.25
2019-01-25T02:53:39.183Z,54.73
2019-01-25T02:56:07.637Z,65.08
2019-01-25T02:58:36.065Z,61.28
2019-01-25T03:01:04.647Z,66.42
2019-01-25T03:03:33.101Z,74.87
2019-01-25T03:06:01.515Z,52.38
2019-01-25T03:08:29.962Z,71.50
2019-01-25T03:10:58.395Z,55.38
2019-01-25T03:13:26.818Z,69.17
2019-01-25T03:15:55.278Z,43.35
2019-01-25T03:18:23.734Z,61.77
2019-01-25T03:20:52.163Z,54.00
2019-01-25T03:23:20.778Z,69.37
2019-01-25T03:25:49.207Z,67.10
2019-01-25T03:28:17.709Z,68.75
2019-01-25T03:30:46.159Z,62.53
2019-01-25T03:33:14.617Z,58.60
2019-01-25T03:35:43.027Z,66.97
2019-01-25T03:38:11.466Z,65.37
2019-01-25T03:40:43.127Z,59.30
2019-01-25T03:43:11.568Z,71.22
2019-01-25T03:45:39.984Z,78.80
2019-01-25T03:48:08.958Z,72.37
2019-01-25T03:50:37.410Z,67.10
2019-01-25T03:53:05.886Z,73.20
2019-01-25T03:55:39.011Z,68.25
2019-01-25T03:58:07.424Z,66.87
2019-01-25T04:00:35.847Z,70.47
2019-01-25T04:03:04.333Z,69.27
2019-01-25T04:05:32.811Z,77.47
2019-01-25T04:08:01.258Z,56.18
2019-01-25T04:10:32.462Z,71.25
2019-01-25T04:13:00.886Z,90.28
2019-01-25T04:15:31.857Z,79.42
2019-01-25T04:18:00.274Z,64.45
2019-01-25T04:20:29.634Z,79.10
2019-01-25T04:22:58.334Z,78.22
2019-01-25T04:25:30.094Z,62.40
2019-01-25T04:27:58.909Z,70.87
2019-01-25T04:30:29.607Z,66.82
2019-01-25T04:32:58.087Z,84.90
2019-01-25T04:35:26.585Z,79.32
2019-01-25T04:37:55.068Z,67.30
2019-01-25T04:40:23.490Z,75.28
2019-01-25T04:42:56.434Z,62.48
2019-01-25T04:45:25.159Z,71.10
2019-01-25T04:47:54.018Z,72.72
2019-01-25T04:50:24.423Z,72.85
2019-01-25T04:52:53.419Z,68.78
2019-01-25T04:55:27.273Z,66.75
2019-01-25T04:58:04.632Z,67.87
2019-01-25T05:00:33.084Z,78.25
2019-01-25T05:03:01.559Z,59.50
2019-01-25T05:05:30.638Z,59.70
2019-01-25T05:08:11.106Z,66.97
2019-01-25T05:10:39.590Z,65.52
2019-01-25T05:13:11.191Z,75.52
2019-01-25T05:15:39.659Z,77.40
2019-01-25T05:18:08.424Z,73.25
2019-01-25T05:20:36.890Z,64.90
2019-01-25T05:23:07.556Z,67.40
2019-01-25T05:25:35.969Z,72.12
2019-01-25T05:28:16.779Z,63.68
2019-01-25T05:30:54.024Z,62.15
2019-01-25T05:33:22.483Z,73.80
2019-01-25T05:35:50.923Z,65.52
2019-01-25T05:38:19.367Z,81.47
2019-01-25T05:40:47.859Z,67.95
2019-01-25T05:43:16.297Z,71.22
2019-01-25T05:45:45.979Z,77.70
2019-01-25T05:48:14.947Z,67.70
2019-01-25T05:50:43.422Z,71.25
2019-01-25T05:53:11.828Z,68.55
2019-01-25T05:55:40.285Z,74.58
2019-01-25T05:58:10.035Z,66.62
2019-01-25T06:00:40.156Z,69.47
2019-01-25T06:03:11.742Z,70.70
2019-01-25T06:05:40.510Z,73.35
2019-01-25T06:08:31.217Z,76.62
2019-01-25T06:11:01.794Z,71.60
2019-01-25T06:13:30.602Z,75.30
2019-01-25T06:15:59.023Z,68.70
2019-01-25T06:18:27.485Z,72.50
2019-01-25T06:20:57.921Z,61.73
2019-01-25T06:23:26.634Z,73.90
2019-01-25T06:25:57.467Z,76.97
2019-01-25T06:28:28.815Z,65.57
2019-01-25T06:30:57.318Z,68.85
2019-01-25T06:33:25.894Z,67.80
2019-01-25T06:35:54.336Z,73.55
2019-01-25T06:38:22.814Z,63.92
2019-01-25T06:40:51.298Z,74.12
2019-01-25T06:43:19.738Z,74.40
2019-01-25T06:45:49.823Z,75.15
2019-01-25T06:48:19.117Z,80.57
2019-01-25T06:50:47.587Z,71.97
2019-01-25T06:53:16.026Z,81.17
2019-01-25T06:55:44.448Z,60.52
2019-01-25T06:58:29.717Z,76.80
2019-01-25T07:01:08.490Z,71.45
2019-01-25T07:03:36.944Z,61.70
2019-01-25T07:06:05.513Z,72.95
2019-01-25T07:08:33.959Z,72.35
2019-01-25T07:11:03.799Z,76.12
2019-01-25T07:13:35.552Z,79.17
2019-01-25T07:16:04.150Z,69.97
2019-01-25T07:18:32.599Z,68.85
2019-01-25T07:21:01.023Z,76.72
2019-01-25T07:23:29.479Z,75.42
2019-01-25T07:25:57.897Z,82.80
2019-01-25T07:28:29.316Z,67.50
2019-01-25T07:30:57.832Z,75.32
2019-01-25T07:33:26.365Z,71.65
2019-01-25T07:35:54.928Z,71.37
2019-01-25T07:38:23.570Z,69.70
2019-01-25T07:40:52.061Z,80.30
2019-01-25T07:43:20.463Z,73.02
2019-01-25T07:45:49.116Z,63.70
2019-01-25T07:48:17.634Z,76.22
2019-01-25T07:50:46.122Z,66.10
2019-01-25T07:53:14.569Z,78.72
2019-01-25T07:55:43.132Z,80.67
2019-01-25T07:58:11.890Z,66.10
2019-01-25T08:00:40.380Z,80.67
2019-01-25T08:03:08.839Z,71.55
2019-01-25T08:05:37.251Z,66.60
2019-01-25T08:08:05.721Z,75.20
2019-01-25T08:10:34.274Z,83.80
2019-01-25T08:13:02.860Z,76.77
2019-01-25T08:15:31.581Z,72.53
2019-01-25T08:18:00.375Z,70.25
2019-01-25T08:20:29.080Z,79.62
2019-01-25T08:22:57.723Z,72.05
2019-01-25T08:25:26.416Z,64.55
2019-01-25T08:27:54.837Z,66.53
2019-01-25T08:30:29.789Z,66.00
2019-01-25T08:32:58.608Z,71.75
2019-01-25T08:35:27.099Z,78.02
2019-01-25T08:37:55.641Z,82.15
2019-01-25T08:40:24.221Z,76.00
2019-01-25T08:42:53.032Z,72.03
2019-01-25T08:45:21.464Z,75.92
2019-01-25T08:47:49.914Z,82.22
2019-01-25T08:50:23.772Z,76.00
2019-01-25T08:52:52.365Z,77.40
2019-01-25T08:55:21.450Z,65.47
2019-01-25T08:57:50.505Z,86.32
2019-01-25T09:00:32.283Z,92.25
2019-01-25T09:03:00.688Z,79.15
2019-01-25T09:05:29.113Z,91.25
2019-01-25T09:07:57.568Z,78.57
2019-01-25T09:10:27.419Z,84.45
2019-01-25T09:12:55.877Z,76.35
2019-01-25T09:15:29.768Z,72.15
2019-01-25T09:17:58.205Z,67.95
2019-01-25T09:20:26.686Z,76.92
2019-01-25T09:22:55.138Z,73.85
2019-01-25T09:25:23.592Z,62.50
2019-01-25T09:27:52.134Z,61.40
2019-01-25T09:30:26.296Z,62.98
2019-01-25T09:32:54.811Z,62.58
2019-01-25T09:35:23.515Z,59.67
2019-01-25T09:37:53.957Z,61.02
2019-01-25T09:40:25.228Z,68.45
2019-01-25T09:42:53.652Z,60.60
2019-01-25T09:45:22.568Z,64.22
2019-01-25T09:47:51.263Z,63.28
2019-01-25T09:50:21.451Z,70.15
2019-01-25T09:52:49.904Z,64.62
2019-01-25T09:55:25.907Z,69.32
2019-01-25T09:58:03.163Z,69.45
2019-01-25T10:00:50.407Z,73.10
2019-01-25T10:03:18.918Z,70.90
2019-01-25T10:05:47.339Z,69.17
2019-01-25T10:08:15.794Z,71.17
2019-01-25T10:10:44.253Z,61.55
2019-01-25T10:13:12.672Z,61.23
2019-01-25T10:15:41.114Z,60.80
2019-01-25T10:18:09.644Z,49.03
2019-01-25T10:20:38.061Z,54.40
2019-01-25T10:23:06.478Z,46.80
2019-01-25T10:25:34.958Z,50.52
2019-01-25T10:28:03.422Z,53.70
2019-01-25T10:30:31.862Z,48.40
2019-01-25T10:33:00.552Z,54.93
2019-01-25T10:35:29.374Z,45.38
2019-01-25T10:37:57.826Z,47.33
2019-01-25T10:40:26.344Z,47.62
2019-01-25T10:42:54.795Z,46.90
2019-01-25T10:45:41.650Z,45.73
2019-01-25T10:48:13.454Z,43.68
2019-01-25T10:50:41.966Z,53.15
2019-01-25T10:53:10.402Z,46.60
2019-01-25T10:55:39.225Z,43.80
2019-01-25T10:58:08.698Z,46.37
2019-01-25T11:00:37.178Z,44.33
2019-01-25T11:03:05.862Z,33.00
2019-01-25T11:05:34.396Z,33.73
2019-01-25T11:08:02.867Z,37.60
2019-01-25T11:10:31.690Z,41.20
2019-01-25T11:13:01.078Z,49.03
2019-01-25T11:15:29.907Z,40.20
2019-01-25T11:18:02.293Z,44.53
2019-01-25T11:20:30.705Z,48.42
2019-01-25T11:22:59.174Z,49.10
2019-01-25T11:25:36.734Z,36.63
2019-01-25T11:28:05.472Z,24.30
2019-01-25T11:30:34.220Z,23.18
2019-01-25T11:33:07.012Z,28.95
2019-01-25T11:35:35.463Z,25.45
2019-01-25T11:38:04.870Z,30.88
2019-01-25T11:40:39.212Z,38.25
2019-01-25T11:43:08.816Z,38.95
2019-01-25T11:45:37.947Z,31.80
2019-01-25T11:48:09.802Z,30.77
2019-01-25T11:50:39.059Z,30.85
2019-01-25T11:53:07.583Z,31.97
2019-01-25T11:55:36.020Z,32.15
2019-01-25T11:58:05.588Z,36.95
2019-01-25T12:00:35.165Z,36.40
2019-01-25T12:03:07.767Z,36.17
2019-01-25T12:05:36.253Z,35.05
2019-01-25T12:08:05.987Z,27.67
2019-01-25T12:10:34.723Z,36.03
2019-01-25T12:13:03.745Z,34.20
2019-01-25T12:15:32.334Z,32.88
2019-01-25T12:18:01.069Z,38.67
2019-01-25T12:20:31.487Z,30.32
2019-01-25T12:23:00.344Z,42.50
2019-01-25T12:25:28.880Z,36.58
2019-01-25T12:27:57.771Z,42.10
2019-01-25T12:30:31.082Z,40.63
2019-01-25T12:32:59.826Z,36.63
2019-01-25T12:35:30.898Z,43.10
2019-01-25T12:37:59.440Z,30.60
2019-01-25T12:40:27.855Z,47.53
2019-01-25T12:42:56.397Z,41.00
2019-01-25T12:45:27.534Z,45.67
2019-01-25T12:47:56.155Z,35.03
2019-01-25T12:50:36.401Z,35.33
2019-01-25T12:53:08.275Z,34.60
2019-01-25T12:55:36.845Z,29.50
2019-01-25T12:58:06.305Z,40.60
2019-01-25T13:00:35.032Z,33.78
2019-01-25T13:03:04.654Z,30.05
2019-01-25T13:05:33.094Z,33.88
2019-01-25T13:08:01.534Z,39.10
2019-01-25T13:10:30.028Z,37.30
2019-01-25T13:12:58.578Z,36.05
2019-01-25T13:15:27.131Z,40.33
2019-01-25T13:17:55.556Z,33.95
2019-01-25T13:20:31.500Z,39.80
2019-01-25T13:23:00.104Z,39.03
2019-01-25T13:25:28.656Z,33.53
2019-01-25T13:27:57.142Z,40.52
2019-01-25T13:30:30.766Z,37.75
2019-01-25T13:32:59.717Z,36.83
2019-01-25T13:35:28.288Z,40.45
2019-01-25T13:37:56.802Z,32.35
2019-01-25T13:40:29.851Z,36.38
2019-01-25T13:42:58.345Z,29.57
2019-01-25T13:45:26.823Z,35.25
2019-01-25T13:47:55.587Z,32.17
2019-01-25T13:50:27.140Z,33.92
2019-01-25T13:52:55.598Z,30.70
2019-01-25T13:55:24.349Z,33.42
2019-01-25T13:57:53.228Z,36.08
2019-01-25T14:00:30.491Z,29.70
2019-01-25T14:02:59.507Z,37.10
2019-01-25T14:05:28.304Z,28.80
2019-01-25T14:07:56.962Z,35.03
2019-01-25T14:10:36.058Z,23.90
2019-01-25T14:13:05.530Z,32.25
2019-01-25T14:15:34.507Z,34.38
2019-01-25T14:18:03.022Z,30.92
2019-01-25T14:20:32.778Z,31.60
2019-01-25T14:23:01.574Z,35.70
2019-01-25T14:25:30.562Z,28.07
2019-01-25T14:27:59.011Z,29.10
2019-01-25T14:30:30.543Z,26.30
2019-01-25T14:32:58.980Z,29.80
2019-01-25T14:35:31.287Z,33.58
2019-01-25T14:37:59.779Z,30.12
2019-01-25T14:40:28.315Z,36.60
2019-01-25T14:42:56.743Z,33.98
2019-01-25T14:45:25.708Z,36.58
2019-01-25T14:47:54.234Z,34.45
2019-01-25T14:50:30.947Z,36.65
2019-01-25T14:52:59.835Z,37.03
2019-01-25T14:55:28.332Z,34.73
2019-01-25T14:57:57.454Z,36.75
2019-01-25T15:00:25.907Z,39.90
2019-01-25T15:02:54.348Z,41.40
2019-01-25T15:05:22.946Z,37.30
2019-01-25T15:07:51.450Z,40.40
2019-01-25T15:10:22.448Z,42.88
2019-01-25T15:12:52.701Z,47.13
2019-01-25T15:15:21.601Z,41.20
2019-01-25T15:17:50.314Z,41.73
2019-01-25T15:20:21.473Z,43.78
2019-01-25T15:22:49.911Z,57.80
2019-01-25T15:25:18.711Z,43.23
2019-01-25T15:27:47.243Z,35.70
2019-01-25T15:30:18.569Z,41.68
2019-01-25T15:32:47.126Z,37.88
2019-01-25T15:35:17.999Z,47.03
2019-01-25T15:37:46.426Z,39.15
2019-01-25T15:40:17.638Z,41.70
2019-01-25T15:42:46.600Z,43.65
2019-01-25T15:45:20.563Z,46.73
2019-01-25T15:47:49.077Z,50.15
2019-01-25T15:50:23.407Z,41.55
2019-01-25T15:52:51.843Z,38.60
2019-01-25T15:55:20.995Z,46.98
2019-01-25T15:57:49.526Z,46.98
2019-01-25T16:00:23.898Z,40.35
2019-01-25T16:02:52.810Z,49.83
2019-01-25T16:05:23.039Z,43.68
2019-01-25T16:07:51.537Z,50.43
2019-01-25T16:10:21.687Z,41.95
2019-01-25T16:12:50.986Z,44.70
2019-01-25T16:15:25.234Z,49.45
2019-01-25T16:17:54.502Z,42.33
2019-01-25T16:20:22.954Z,47.73
2019-01-25T16:22:56.898Z,42.80
2019-01-25T16:25:28.475Z,37.70
2019-01-25T16:27:56.960Z,53.13
2019-01-25T16:30:33.647Z,40.45
2019-01-25T16:33:02.085Z,46.63
2019-01-25T16:35:30.916Z,51.20
2019-01-25T16:37:59.374Z,49.05
2019-01-25T16:40:32.199Z,48.75
2019-01-25T16:43:00.630Z,47.73
2019-01-25T16:45:37.929Z,44.30
2019-01-25T16:48:06.795Z,48.13
2019-01-25T16:50:35.689Z,44.93
2019-01-25T16:53:06.441Z,50.73
2019-01-25T16:55:35.146Z,44.35
2019-01-25T16:58:03.563Z,49.80
2019-01-25T17:00:34.931Z,47.95
2019-01-25T17:03:03.841Z,47.45
2019-01-25T17:05:32.851Z,47.25
2019-01-25T17:08:05.817Z,43.00
2019-01-25T17:10:34.710Z,57.60
2019-01-25T17:13:03.808Z,50.23
2019-01-25T17:15:32.235Z,44.03
2019-01-25T17:18:00.696Z,42.67
2019-01-25T17:20:30.254Z,49.35
2019-01-25T17:22:58.690Z,49.00
2019-01-25T17:25:27.182Z,45.33
2019-01-25T17:27:55.992Z,46.45
2019-01-25T17:30:32.741Z,43.38
2019-01-25T17:33:01.827Z,41.98
2019-01-25T17:35:31.313Z,44.83
2019-01-25T17:38:00.001Z,48.35
2019-01-25T17:40:37.118Z,46.15
2019-01-25T17:43:05.799Z,45.03
2019-01-25T17:45:34.256Z,46.18
2019-01-25T17:48:02.687Z,49.27
2019-01-25T17:50:31.210Z,48.85
2019-01-25T17:52:59.635Z,45.28
2019-01-25T17:55:28.063Z,50.15
2019-01-25T17:57:56.503Z,49.03
2019-01-25T18:00:31.975Z,54.48
2019-01-25T18:03:00.428Z,53.33
2019-01-25T18:05:28.912Z,54.27
2019-01-25T18:07:57.356Z,57.53
2019-01-25T18:10:26.258Z,46.58
2019-01-25T18:12:54.691Z,51.68
2019-01-25T18:15:23.480Z,49.58
2019-01-25T18:17:51.905Z,42.23
2019-01-25T18:20:24.279Z,42.00
2019-01-25T18:22:53.235Z,48.55
2019-01-25T18:25:44.383Z,50.33
2019-01-25T18:28:21.604Z,46.10
2019-01-25T18:30:53.347Z,48.05
2019-01-25T18:33:21.770Z,50.92
2019-01-25T18:35:50.235Z,50.23
2019-01-25T18:38:19.004Z,47.20
2019-01-25T18:40:51.438Z,51.70
2019-01-25T18:43:19.851Z,52.83
2019-01-25T18:45:48.495Z,46.40
2019-01-25T18:48:16.919Z,55.20
2019-01-25T18:50:45.344Z,42.23
2019-01-25T18:53:13.779Z,50.45
2019-01-25T18:55:42.194Z,51.73
2019-01-25T18:58:10.648Z,51.10
2019-01-25T19:00:39.440Z,42.58
2019-01-25T19:03:07.943Z,51.58
2019-01-25T19:05:36.395Z,43.65
2019-01-25T19:08:05.266Z,54.58
2019-01-25T19:10:33.758Z,43.85
2019-01-25T19:13:02.202Z,48.70
2019-01-25T19:15:31.752Z,53.58
2019-01-25T19:18:00.210Z,51.25
2019-01-25T19:20:29.063Z,44.50
2019-01-25T19:22:57.506Z,47.35
2019-01-25T19:25:25.939Z,42.17
2019-01-25T19:27:54.366Z,45.88
2019-01-25T19:30:28.479Z,49.18
2019-01-25T19:32:57.216Z,41.60
2019-01-25T19:35:25.703Z,48.00
2019-01-25T19:37:54.362Z,40.92
2019-01-25T19:40:26.074Z,38.95
2019-01-25T19:42:54.859Z,40.38
2019-01-25T19:45:23.731Z,37.08
2019-01-25T19:47:52.470Z,34.90
2019-01-25T19:50:21.618Z,36.50
2019-01-25T19:52:50.700Z,42.48
2019-01-25T19:55:22.040Z,38.88
2019-01-25T19:57:50.750Z,36.30
2019-01-25T20:00:34.280Z,33.40
2019-01-25T20:03:02.701Z,51.05
2019-01-25T20:05:32.635Z,39.83
2019-01-25T20:08:01.491Z,41.08
2019-01-25T20:10:30.180Z,37.50
2019-01-25T20:12:58.675Z,38.15
2019-01-25T20:15:28.180Z,47.58
2019-01-25T20:17:56.930Z,32.67
2019-01-25T20:20:28.604Z,41.25
2019-01-25T20:22:57.592Z,34.95
2019-01-25T20:25:26.015Z,33.13
2019-01-25T20:27:54.493Z,31.27
2019-01-25T20:30:31.413Z,34.50
2019-01-25T20:33:01.087Z,42.40
2019-01-25T20:35:31.843Z,34.63
2019-01-25T20:38:00.314Z,42.43
2019-01-25T20:40:28.808Z,36.08
2019-01-25T20:42:57.254Z,39.15
2019-01-25T20:45:28.670Z,38.78
2019-01-25T20:47:57.135Z,34.90
2019-01-25T20:50:27.615Z,35.95
2019-01-25T20:52:56.251Z,41.00
2019-01-25T20:55:25.734Z,32.50
2019-01-25T20:57:55.398Z,33.42
2019-01-25T21:00:29.704Z,33.73
2019-01-25T21:02:58.199Z,36.70
2019-01-25T21:05:26.623Z,32.48
2019-01-25T21:07:55.410Z,35.00
2019-01-25T21:10:25.614Z,36.80
2019-01-25T21:12:54.711Z,32.80
2019-01-25T21:15:25.483Z,30.75
2019-01-25T21:17:54.875Z,25.72
2019-01-25T21:20:29.420Z,33.18
2019-01-25T21:22:57.872Z,29.92
2019-01-25T21:25:26.555Z,33.28
2019-01-25T21:27:55.027Z,37.13
2019-01-25T21:30:26.355Z,36.83
2019-01-25T21:32:55.055Z,34.67
2019-01-25T21:35:23.479Z,30.65
2019-01-25T21:37:51.933Z,29.02
2019-01-25T21:40:23.254Z,36.65
2019-01-25T21:42:55.715Z,29.02
2019-01-25T21:45:26.590Z,30.75
2019-01-25T21:47:55.006Z,32.20
2019-01-25T21:50:29.647Z,34.15
2019-01-25T21:52:58.082Z,28.77
2019-01-25T21:55:26.534Z,29.32
2019-01-25T21:57:54.962Z,31.60
2019-01-25T22:00:26.165Z,26.37
2019-01-25T22:02:54.664Z,33.13
2019-01-25T22:05:23.121Z,29.20
2019-01-25T22:07:51.550Z,30.57
2019-01-25T22:10:23.156Z,37.23
2019-01-25T22:12:58.850Z,31.00
2019-01-25T22:15:27.288Z,26.50
2019-01-25T22:17:55.747Z,30.82
2019-01-25T22:20:29.270Z,28.83
2019-01-25T22:22:58.207Z,32.50
2019-01-25T22:25:27.054Z,28.95
2019-01-25T22:27:56.442Z,31.87
2019-01-25T22:30:27.525Z,29.25
2019-01-25T22:32:56.587Z,29.35
2019-01-25T22:35:25.115Z,40.10
2019-01-25T22:37:53.979Z,28.67
2019-01-25T22:40:24.857Z,35.30
2019-01-25T22:42:53.584Z,22.35
2019-01-25T22:45:27.767Z,28.23
2019-01-25T22:47:57.505Z,30.92
2019-01-25T22:50:28.308Z,26.97
2019-01-25T22:52:56.971Z,24.27
2019-01-25T22:55:26.282Z,33.88
2019-01-25T22:57:54.696Z,24.45
2019-01-25T23:00:54.990Z,27.05
2019-01-25T23:03:42.909Z,22.70
2019-01-25T23:06:32.666Z,25.72
2019-01-25T23:09:05.422Z,19.10
2019-01-25T23:11:33.880Z,24.20
2019-01-25T23:14:06.498Z,23.98
2019-01-25T23:16:34.962Z,25.12
2019-01-25T23:19:03.550Z,31.17
2019-01-25T23:21:31.975Z,23.70
2019-01-25T23:24:00.398Z,19.62
2019-01-25T23:26:28.858Z,26.37
2019-01-25T23:28:57.263Z,18.07
2019-01-25T23:31:25.898Z,22.15
2019-01-25T23:33:54.350Z,17.60
2019-01-25T23:36:22.779Z,18.40
2019-01-25T23:38:51.195Z,19.40
2019-01-25T23:41:19.654Z,21.20
2019-01-25T23:43:48.066Z,12.33
2019-01-25T23:46:16.487Z,21.30
2019-01-25T23:48:45.099Z,15.75
2019-01-25T23:51:13.562Z,22.87
2019-01-25T23:53:41.965Z,19.30
2019-01-25T23:56:10.418Z,16.55
2019-01-25T23:58:38.827Z,15.15
